sensor_id;sensor_type;location;lat;lon;timestamp;P1;durP1;ratioP1;P2;durP2;ratioP2
21636;SDS011;10980;49.596;6.142;2023-09-19T00:00:07;5.38;;;3.08;;
21636;SDS011;10980;49.596;6.142;2023-09-19T00:03:31;11.02;;;3.20;;
21636;SDS011;10980;49.596;6.142;2023-09-19T00:06:53;8.45;;;3.22;;
21636;SDS011;10980;49.596;6.142;2023-09-19T00:10:15;4.93;;;2.97;;
21636;SDS011;10980;49.596;6.142;2023-09-19T00:13:38;5.05;;;3.10;;
21636;SDS011;10980;49.596;6.142;2023-09-19T00:17:04;5.88;;;3.45;;
21636;SDS011;10980;49.596;6.142;2023-09-19T00:20:30;9.85;;;3.00;;
21636;SDS011;10980;49.596;6.142;2023-09-19T00:23:52;11.85;;;3.70;;
21636;SDS011;10980;49.596;6.142;2023-09-19T00:27:13;5.85;;;2.88;;
21636;SDS011;10980;49.596;6.142;2023-09-19T00:30:35;7.53;;;2.83;;
21636;SDS011;10980;49.596;6.142;2023-09-19T00:33:59;6.95;;;3.10;;
21636;SDS011;10980;49.596;6.142;2023-09-19T00:37:27;4.20;;;2.72;;
21636;SDS011;10980;49.596;6.142;2023-09-19T00:40:50;8.55;;;3.10;;
21636;SDS011;10980;49.596;6.142;2023-09-19T00:44:16;8.90;;;3.15;;
21636;SDS011;10980;49.596;6.142;2023-09-19T00:47:39;5.90;;;2.88;;
21636;SDS011;10980;49.596;6.142;2023-09-19T00:51:03;7.45;;;3.65;;
21636;SDS011;10980;49.596;6.142;2023-09-19T00:54:26;9.65;;;3.78;;
21636;SDS011;10980;49.596;6.142;2023-09-19T00:57:49;5.65;;;3.20;;
21636;SDS011;10980;49.596;6.142;2023-09-19T01:01:12;5.90;;;3.28;;
21636;SDS011;10980;49.596;6.142;2023-09-19T01:04:36;9.05;;;3.42;;
21636;SDS011;10980;49.596;6.142;2023-09-19T01:07:58;5.55;;;2.47;;
21636;SDS011;10980;49.596;6.142;2023-09-19T01:11:28;10.35;;;3.05;;
21636;SDS011;10980;49.596;6.142;2023-09-19T01:15:04;5.85;;;2.88;;
21636;SDS011;10980;49.596;6.142;2023-09-19T01:19:05;4.53;;;3.03;;
21636;SDS011;10980;49.596;6.142;2023-09-19T01:27:17;5.35;;;2.70;;
21636;SDS011;10980;49.596;6.142;2023-09-19T01:30:51;13.48;;;2.20;;
21636;SDS011;10980;49.596;6.142;2023-09-19T01:34:21;5.88;;;2.20;;
21636;SDS011;10980;49.596;6.142;2023-09-19T01:37:43;7.78;;;2.42;;
21636;SDS011;10980;49.596;6.142;2023-09-19T01:41:06;3.65;;;1.80;;
21636;SDS011;10980;49.596;6.142;2023-09-19T01:48:17;8.35;;;2.20;;
21636;SDS011;10980;49.596;6.142;2023-09-19T01:52:03;6.30;;;2.20;;
21636;SDS011;10980;49.596;6.142;2023-09-19T01:55:40;6.65;;;1.75;;
21636;SDS011;10980;49.596;6.142;2023-09-19T01:59:13;5.93;;;1.90;;
21636;SDS011;10980;49.596;6.142;2023-09-19T02:02:44;9.20;;;2.08;;
21636;SDS011;10980;49.596;6.142;2023-09-19T02:06:09;5.80;;;2.33;;
21636;SDS011;10980;49.596;6.142;2023-09-19T02:09:39;3.85;;;1.70;;
21636;SDS011;10980;49.596;6.142;2023-09-19T02:13:04;6.68;;;1.70;;
21636;SDS011;10980;49.596;6.142;2023-09-19T02:16:27;4.53;;;1.63;;
21636;SDS011;10980;49.596;6.142;2023-09-19T02:19:50;4.75;;;1.73;;
21636;SDS011;10980;49.596;6.142;2023-09-19T02:23:13;11.98;;;1.50;;
21636;SDS011;10980;49.596;6.142;2023-09-19T02:26:36;5.25;;;1.52;;
21636;SDS011;10980;49.596;6.142;2023-09-19T02:30:00;4.65;;;1.67;;
21636;SDS011;10980;49.596;6.142;2023-09-19T02:33:25;10.75;;;1.88;;
21636;SDS011;10980;49.596;6.142;2023-09-19T02:36:47;14.65;;;1.88;;
21636;SDS011;10980;49.596;6.142;2023-09-19T02:40:10;4.90;;;2.00;;
21636;SDS011;10980;49.596;6.142;2023-09-19T02:43:47;3.83;;;1.67;;
21636;SDS011;10980;49.596;6.142;2023-09-19T02:47:08;5.75;;;1.92;;
21636;SDS011;10980;49.596;6.142;2023-09-19T02:50:31;4.13;;;1.98;;
21636;SDS011;10980;49.596;6.142;2023-09-19T02:53:54;3.53;;;2.00;;
21636;SDS011;10980;49.596;6.142;2023-09-19T02:57:17;6.85;;;1.83;;
21636;SDS011;10980;49.596;6.142;2023-09-19T03:00:41;3.80;;;1.75;;
21636;SDS011;10980;49.596;6.142;2023-09-19T03:04:04;7.50;;;1.30;;
21636;SDS011;10980;49.596;6.142;2023-09-19T03:07:29;4.85;;;1.80;;
21636;SDS011;10980;49.596;6.142;2023-09-19T03:10:52;13.30;;;2.22;;
21636;SDS011;10980;49.596;6.142;2023-09-19T03:14:14;6.38;;;2.10;;
21636;SDS011;10980;49.596;6.142;2023-09-19T03:17:37;3.60;;;1.88;;
21636;SDS011;10980;49.596;6.142;2023-09-19T03:21:04;5.68;;;2.13;;
21636;SDS011;10980;49.596;6.142;2023-09-19T03:24:26;5.18;;;1.73;;
21636;SDS011;10980;49.596;6.142;2023-09-19T03:27:48;6.47;;;1.92;;
21636;SDS011;10980;49.596;6.142;2023-09-19T03:31:11;4.35;;;1.67;;
21636;SDS011;10980;49.596;6.142;2023-09-19T03:34:33;8.50;;;2.28;;
21636;SDS011;10980;49.596;6.142;2023-09-19T03:38:02;8.07;;;2.00;;
21636;SDS011;10980;49.596;6.142;2023-09-19T03:41:24;7.70;;;2.03;;
21636;SDS011;10980;49.596;6.142;2023-09-19T03:44:46;4.95;;;1.90;;
21636;SDS011;10980;49.596;6.142;2023-09-19T03:48:08;5.13;;;1.92;;
21636;SDS011;10980;49.596;6.142;2023-09-19T03:51:31;8.05;;;2.40;;
21636;SDS011;10980;49.596;6.142;2023-09-19T03:54:55;6.72;;;2.22;;
21636;SDS011;10980;49.596;6.142;2023-09-19T03:58:17;4.47;;;2.88;;
21636;SDS011;10980;49.596;6.142;2023-09-19T04:01:40;5.68;;;1.95;;
21636;SDS011;10980;49.596;6.142;2023-09-19T04:05:02;4.35;;;1.98;;
21636;SDS011;10980;49.596;6.142;2023-09-19T04:08:24;4.40;;;2.00;;
21636;SDS011;10980;49.596;6.142;2023-09-19T04:11:46;3.90;;;2.10;;
21636;SDS011;10980;49.596;6.142;2023-09-19T04:15:08;3.80;;;2.08;;
21636;SDS011;10980;49.596;6.142;2023-09-19T04:18:34;6.50;;;2.20;;
21636;SDS011;10980;49.596;6.142;2023-09-19T04:21:59;10.68;;;2.10;;
21636;SDS011;10980;49.596;6.142;2023-09-19T04:25:21;9.00;;;3.28;;
21636;SDS011;10980;49.596;6.142;2023-09-19T04:28:43;7.45;;;2.50;;
21636;SDS011;10980;49.596;6.142;2023-09-19T04:32:07;5.50;;;2.15;;
21636;SDS011;10980;49.596;6.142;2023-09-19T04:35:30;8.05;;;2.30;;
21636;SDS011;10980;49.596;6.142;2023-09-19T04:38:52;8.23;;;2.22;;
21636;SDS011;10980;49.596;6.142;2023-09-19T04:42:14;7.65;;;2.63;;
21636;SDS011;10980;49.596;6.142;2023-09-19T04:45:38;4.93;;;1.90;;
21636;SDS011;10980;49.596;6.142;2023-09-19T04:49:01;6.43;;;1.88;;
21636;SDS011;10980;49.596;6.142;2023-09-19T04:52:26;7.22;;;1.88;;
21636;SDS011;10980;49.596;6.142;2023-09-19T04:55:51;8.43;;;2.10;;
21636;SDS011;10980;49.596;6.142;2023-09-19T04:59:17;7.13;;;2.50;;
21636;SDS011;10980;49.596;6.142;2023-09-19T05:02:39;8.20;;;1.90;;
21636;SDS011;10980;49.596;6.142;2023-09-19T05:06:02;5.40;;;1.77;;
21636;SDS011;10980;49.596;6.142;2023-09-19T05:09:26;4.90;;;1.83;;
21636;SDS011;10980;49.596;6.142;2023-09-19T05:12:48;6.40;;;2.20;;
21636;SDS011;10980;49.596;6.142;2023-09-19T05:16:13;3.13;;;1.38;;
21636;SDS011;10980;49.596;6.142;2023-09-19T05:19:35;4.95;;;2.35;;
21636;SDS011;10980;49.596;6.142;2023-09-19T05:22:58;4.10;;;1.92;;
21636;SDS011;10980;49.596;6.142;2023-09-19T05:26:26;2.95;;;1.42;;
21636;SDS011;10980;49.596;6.142;2023-09-19T05:29:48;3.05;;;1.77;;
21636;SDS011;10980;49.596;6.142;2023-09-19T05:33:12;7.18;;;1.60;;
21636;SDS011;10980;49.596;6.142;2023-09-19T05:36:34;9.70;;;1.83;;
21636;SDS011;10980;49.596;6.142;2023-09-19T05:39:56;2.67;;;1.33;;
21636;SDS011;10980;49.596;6.142;2023-09-19T05:43:18;7.90;;;1.75;;
21636;SDS011;10980;49.596;6.142;2023-09-19T05:46:40;8.13;;;2.15;;
21636;SDS011;10980;49.596;6.142;2023-09-19T05:50:02;8.20;;;1.90;;
21636;SDS011;10980;49.596;6.142;2023-09-19T05:53:26;7.25;;;2.30;;
21636;SDS011;10980;49.596;6.142;2023-09-19T05:56:49;3.85;;;1.90;;
21636;SDS011;10980;49.596;6.142;2023-09-19T06:00:14;11.18;;;2.17;;
21636;SDS011;10980;49.596;6.142;2023-09-19T06:03:39;5.97;;;1.90;;
21636;SDS011;10980;49.596;6.142;2023-09-19T06:07:01;8.20;;;2.10;;
21636;SDS011;10980;49.596;6.142;2023-09-19T06:10:24;6.55;;;2.00;;
21636;SDS011;10980;49.596;6.142;2023-09-19T06:13:46;8.32;;;1.80;;
21636;SDS011;10980;49.596;6.142;2023-09-19T06:17:12;8.60;;;1.77;;
21636;SDS011;10980;49.596;6.142;2023-09-19T06:20:34;10.00;;;1.88;;
21636;SDS011;10980;49.596;6.142;2023-09-19T06:23:57;9.73;;;2.97;;
21636;SDS011;10980;49.596;6.142;2023-09-19T06:27:19;6.82;;;2.08;;
21636;SDS011;10980;49.596;6.142;2023-09-19T06:30:44;13.02;;;2.00;;
21636;SDS011;10980;49.596;6.142;2023-09-19T06:34:06;10.05;;;1.70;;
21636;SDS011;10980;49.596;6.142;2023-09-19T06:37:28;13.05;;;2.78;;
21636;SDS011;10980;49.596;6.142;2023-09-19T06:40:51;9.68;;;2.10;;
21636;SDS011;10980;49.596;6.142;2023-09-19T06:44:14;12.55;;;2.42;;
21636;SDS011;10980;49.596;6.142;2023-09-19T06:47:36;10.70;;;2.25;;
21636;SDS011;10980;49.596;6.142;2023-09-19T06:50:58;7.22;;;1.98;;
21636;SDS011;10980;49.596;6.142;2023-09-19T06:54:23;6.20;;;1.48;;
21636;SDS011;10980;49.596;6.142;2023-09-19T06:57:48;6.95;;;1.65;;
21636;SDS011;10980;49.596;6.142;2023-09-19T07:01:10;7.43;;;1.90;;
21636;SDS011;10980;49.596;6.142;2023-09-19T07:04:32;9.15;;;1.80;;
21636;SDS011;10980;49.596;6.142;2023-09-19T07:07:54;9.40;;;2.40;;
21636;SDS011;10980;49.596;6.142;2023-09-19T07:11:22;9.02;;;2.05;;
21636;SDS011;10980;49.596;6.142;2023-09-19T07:14:44;13.00;;;2.83;;
21636;SDS011;10980;49.596;6.142;2023-09-19T07:18:06;7.72;;;1.90;;
21636;SDS011;10980;49.596;6.142;2023-09-19T07:21:32;7.80;;;1.27;;
21636;SDS011;10980;49.596;6.142;2023-09-19T07:24:54;3.65;;;1.67;;
21636;SDS011;10980;49.596;6.142;2023-09-19T07:28:16;5.75;;;1.30;;
21636;SDS011;10980;49.596;6.142;2023-09-19T07:31:38;5.90;;;1.38;;
21636;SDS011;10980;49.596;6.142;2023-09-19T07:35:00;5.72;;;1.60;;
21636;SDS011;10980;49.596;6.142;2023-09-19T07:38:22;10.15;;;1.67;;
21636;SDS011;10980;49.596;6.142;2023-09-19T07:41:44;9.13;;;1.65;;
21636;SDS011;10980;49.596;6.142;2023-09-19T07:45:06;10.70;;;2.25;;
21636;SDS011;10980;49.596;6.142;2023-09-19T07:48:29;6.32;;;1.73;;
21636;SDS011;10980;49.596;6.142;2023-09-19T07:51:51;7.45;;;1.30;;
21636;SDS011;10980;49.596;6.142;2023-09-19T07:55:16;8.20;;;1.92;;
21636;SDS011;10980;49.596;6.142;2023-09-19T07:58:39;10.90;;;1.95;;
21636;SDS011;10980;49.596;6.142;2023-09-19T08:02:05;5.40;;;1.85;;
21636;SDS011;10980;49.596;6.142;2023-09-19T08:05:29;10.07;;;1.38;;
21636;SDS011;10980;49.596;6.142;2023-09-19T08:08:51;9.30;;;1.55;;
21636;SDS011;10980;49.596;6.142;2023-09-19T08:12:15;12.73;;;1.98;;
21636;SDS011;10980;49.596;6.142;2023-09-19T08:15:42;6.25;;;1.45;;
21636;SDS011;10980;49.596;6.142;2023-09-19T08:19:06;4.72;;;1.33;;
21636;SDS011;10980;49.596;6.142;2023-09-19T08:22:27;4.10;;;1.60;;
21636;SDS011;10980;49.596;6.142;2023-09-19T08:25:49;9.60;;;1.50;;
21636;SDS011;10980;49.596;6.142;2023-09-19T08:29:12;6.50;;;1.70;;
21636;SDS011;10980;49.596;6.142;2023-09-19T08:32:34;8.48;;;1.50;;
21636;SDS011;10980;49.596;6.142;2023-09-19T08:35:56;9.25;;;1.42;;
21636;SDS011;10980;49.596;6.142;2023-09-19T08:39:18;7.45;;;1.88;;
21636;SDS011;10980;49.596;6.142;2023-09-19T08:42:50;6.22;;;1.60;;
21636;SDS011;10980;49.596;6.142;2023-09-19T08:46:15;7.88;;;1.77;;
21636;SDS011;10980;49.596;6.142;2023-09-19T08:53:44;6.60;;;1.60;;
21636;SDS011;10980;49.596;6.142;2023-09-19T08:57:20;6.63;;;1.35;;
21636;SDS011;10980;49.596;6.142;2023-09-19T09:00:43;6.85;;;1.20;;
21636;SDS011;10980;49.596;6.142;2023-09-19T09:04:10;4.75;;;1.10;;
21636;SDS011;10980;49.596;6.142;2023-09-19T09:07:35;10.07;;;1.33;;
21636;SDS011;10980;49.596;6.142;2023-09-19T09:10:58;6.25;;;1.20;;
21636;SDS011;10980;49.596;6.142;2023-09-19T09:14:20;2.30;;;0.95;;
21636;SDS011;10980;49.596;6.142;2023-09-19T09:17:43;5.40;;;1.20;;
21636;SDS011;10980;49.596;6.142;2023-09-19T09:21:06;5.63;;;1.30;;
21636;SDS011;10980;49.596;6.142;2023-09-19T09:24:28;5.32;;;0.98;;
21636;SDS011;10980;49.596;6.142;2023-09-19T09:28:01;4.35;;;1.05;;
21636;SDS011;10980;49.596;6.142;2023-09-19T09:31:24;3.60;;;0.80;;
21636;SDS011;10980;49.596;6.142;2023-09-19T09:34:51;3.80;;;1.08;;
21636;SDS011;10980;49.596;6.142;2023-09-19T09:38:23;5.63;;;0.63;;
21636;SDS011;10980;49.596;6.142;2023-09-19T09:41:49;3.53;;;0.75;;
21636;SDS011;10980;49.596;6.142;2023-09-19T09:45:14;3.60;;;0.98;;
21636;SDS011;10980;49.596;6.142;2023-09-19T09:49:03;2.75;;;0.70;;
21636;SDS011;10980;49.596;6.142;2023-09-19T09:52:46;4.80;;;0.90;;
21636;SDS011;10980;49.596;6.142;2023-09-19T09:56:08;4.13;;;0.88;;
21636;SDS011;10980;49.596;6.142;2023-09-19T10:03:20;5.57;;;1.02;;
21636;SDS011;10980;49.596;6.142;2023-09-19T10:06:45;5.80;;;1.00;;
21636;SDS011;10980;49.596;6.142;2023-09-19T10:10:13;4.68;;;0.88;;
21636;SDS011;10980;49.596;6.142;2023-09-19T10:13:38;6.75;;;0.88;;
21636;SDS011;10980;49.596;6.142;2023-09-19T10:17:06;2.63;;;0.85;;
21636;SDS011;10980;49.596;6.142;2023-09-19T10:20:37;1.80;;;0.70;;
21636;SDS011;10980;49.596;6.142;2023-09-19T10:24:00;5.95;;;0.80;;
21636;SDS011;10980;49.596;6.142;2023-09-19T10:27:29;3.33;;;0.80;;
21636;SDS011;10980;49.596;6.142;2023-09-19T10:30:58;5.22;;;0.85;;
21636;SDS011;10980;49.596;6.142;2023-09-19T10:34:23;7.63;;;0.95;;
21636;SDS011;10980;49.596;6.142;2023-09-19T10:37:48;2.75;;;0.70;;
21636;SDS011;10980;49.596;6.142;2023-09-19T10:41:16;6.47;;;0.90;;
21636;SDS011;10980;49.596;6.142;2023-09-19T10:44:42;5.15;;;0.90;;
21636;SDS011;10980;49.596;6.142;2023-09-19T10:48:07;3.53;;;0.90;;
21636;SDS011;10980;49.596;6.142;2023-09-19T10:51:29;4.32;;;0.65;;
21636;SDS011;10980;49.596;6.142;2023-09-19T10:55:01;6.53;;;0.65;;
21636;SDS011;10980;49.596;6.142;2023-09-19T10:58:27;3.70;;;0.82;;
21636;SDS011;10980;49.596;6.142;2023-09-19T11:01:58;4.22;;;1.08;;
21636;SDS011;10980;49.596;6.142;2023-09-19T11:05:21;3.20;;;0.93;;
21636;SDS011;10980;49.596;6.142;2023-09-19T11:16:08;3.58;;;0.70;;
21636;SDS011;10980;49.596;6.142;2023-09-19T11:23:35;4.05;;;0.80;;
21636;SDS011;10980;49.596;6.142;2023-09-19T11:27:11;6.22;;;0.80;;
21636;SDS011;10980;49.596;6.142;2023-09-19T11:30:36;2.40;;;0.90;;
21636;SDS011;10980;49.596;6.142;2023-09-19T11:38:01;6.65;;;0.90;;
21636;SDS011;10980;49.596;6.142;2023-09-19T11:44:47;3.22;;;0.82;;
21636;SDS011;10980;49.596;6.142;2023-09-19T11:48:13;5.53;;;0.75;;
21636;SDS011;10980;49.596;6.142;2023-09-19T11:51:40;2.80;;;1.00;;
21636;SDS011;10980;49.596;6.142;2023-09-19T11:55:06;2.42;;;0.60;;
21636;SDS011;10980;49.596;6.142;2023-09-19T11:58:32;3.47;;;0.90;;
21636;SDS011;10980;49.596;6.142;2023-09-19T12:02:04;7.38;;;0.98;;
21636;SDS011;10980;49.596;6.142;2023-09-19T12:05:31;6.03;;;0.85;;
21636;SDS011;10980;49.596;6.142;2023-09-19T12:08:54;8.40;;;0.98;;
21636;SDS011;10980;49.596;6.142;2023-09-19T12:12:20;3.17;;;1.30;;
21636;SDS011;10980;49.596;6.142;2023-09-19T12:15:49;2.90;;;0.63;;
21636;SDS011;10980;49.596;6.142;2023-09-19T12:19:17;1.85;;;0.80;;
21636;SDS011;10980;49.596;6.142;2023-09-19T12:22:45;3.75;;;0.82;;
21636;SDS011;10980;49.596;6.142;2023-09-19T12:26:08;2.10;;;0.75;;
21636;SDS011;10980;49.596;6.142;2023-09-19T12:29:49;5.30;;;1.13;;
21636;SDS011;10980;49.596;6.142;2023-09-19T12:33:19;3.60;;;0.90;;
21636;SDS011;10980;49.596;6.142;2023-09-19T12:36:42;2.63;;;0.80;;
21636;SDS011;10980;49.596;6.142;2023-09-19T12:40:05;3.65;;;0.88;;
21636;SDS011;10980;49.596;6.142;2023-09-19T12:43:39;5.65;;;1.30;;
21636;SDS011;10980;49.596;6.142;2023-09-19T12:47:10;4.85;;;0.70;;
21636;SDS011;10980;49.596;6.142;2023-09-19T12:50:37;2.13;;;0.63;;
21636;SDS011;10980;49.596;6.142;2023-09-19T12:54:39;3.80;;;0.77;;
21636;SDS011;10980;49.596;6.142;2023-09-19T12:58:11;2.03;;;0.75;;
21636;SDS011;10980;49.596;6.142;2023-09-19T13:01:34;3.00;;;1.00;;
21636;SDS011;10980;49.596;6.142;2023-09-19T13:05:01;4.00;;;0.77;;
21636;SDS011;10980;49.596;6.142;2023-09-19T13:08:30;2.50;;;0.47;;
21636;SDS011;10980;49.596;6.142;2023-09-19T13:12:00;6.57;;;1.00;;
21636;SDS011;10980;49.596;6.142;2023-09-19T13:15:24;2.00;;;0.50;;
21636;SDS011;10980;49.596;6.142;2023-09-19T13:18:51;2.88;;;0.63;;
21636;SDS011;10980;49.596;6.142;2023-09-19T13:26:06;1.67;;;0.50;;
21636;SDS011;10980;49.596;6.142;2023-09-19T13:29:28;4.57;;;0.70;;
21636;SDS011;10980;49.596;6.142;2023-09-19T13:32:50;1.63;;;0.60;;
21636;SDS011;10980;49.596;6.142;2023-09-19T13:36:14;6.30;;;0.63;;
21636;SDS011;10980;49.596;6.142;2023-09-19T13:39:36;3.20;;;0.60;;
21636;SDS011;10980;49.596;6.142;2023-09-19T13:42:59;4.28;;;0.80;;
21636;SDS011;10980;49.596;6.142;2023-09-19T13:46:20;2.65;;;0.55;;
21636;SDS011;10980;49.596;6.142;2023-09-19T13:49:47;3.47;;;0.50;;
21636;SDS011;10980;49.596;6.142;2023-09-19T13:53:11;5.63;;;0.65;;
21636;SDS011;10980;49.596;6.142;2023-09-19T13:56:33;2.45;;;0.52;;
21636;SDS011;10980;49.596;6.142;2023-09-19T13:59:55;4.95;;;0.90;;
21636;SDS011;10980;49.596;6.142;2023-09-19T14:03:17;2.70;;;0.70;;
21636;SDS011;10980;49.596;6.142;2023-09-19T14:06:42;2.40;;;0.70;;
21636;SDS011;10980;49.596;6.142;2023-09-19T14:10:04;4.13;;;0.70;;
21636;SDS011;10980;49.596;6.142;2023-09-19T14:13:29;5.65;;;0.65;;
21636;SDS011;10980;49.596;6.142;2023-09-19T14:16:51;4.32;;;0.45;;
21636;SDS011;10980;49.596;6.142;2023-09-19T14:20:14;1.65;;;0.60;;
21636;SDS011;10980;49.596;6.142;2023-09-19T14:23:37;6.60;;;0.73;;
21636;SDS011;10980;49.596;6.142;2023-09-19T14:26:59;1.77;;;0.60;;
21636;SDS011;10980;49.596;6.142;2023-09-19T14:30:21;1.02;;;0.60;;
21636;SDS011;10980;49.596;6.142;2023-09-19T14:33:44;2.92;;;0.65;;
21636;SDS011;10980;49.596;6.142;2023-09-19T14:37:06;4.57;;;0.77;;
21636;SDS011;10980;49.596;6.142;2023-09-19T14:40:28;2.38;;;0.60;;
21636;SDS011;10980;49.596;6.142;2023-09-19T14:43:49;8.68;;;0.85;;
21636;SDS011;10980;49.596;6.142;2023-09-19T14:47:11;2.10;;;0.60;;
21636;SDS011;10980;49.596;6.142;2023-09-19T14:50:35;1.20;;;0.70;;
21636;SDS011;10980;49.596;6.142;2023-09-19T14:53:57;1.63;;;0.40;;
21636;SDS011;10980;49.596;6.142;2023-09-19T14:57:19;3.55;;;0.98;;
21636;SDS011;10980;49.596;6.142;2023-09-19T15:00:41;1.95;;;0.95;;
21636;SDS011;10980;49.596;6.142;2023-09-19T15:04:06;3.00;;;0.80;;
21636;SDS011;10980;49.596;6.142;2023-09-19T15:07:28;2.33;;;0.70;;
21636;SDS011;10980;49.596;6.142;2023-09-19T15:10:50;1.48;;;0.50;;
21636;SDS011;10980;49.596;6.142;2023-09-19T15:14:14;0.80;;;0.30;;
21636;SDS011;10980;49.596;6.142;2023-09-19T15:17:36;1.52;;;0.55;;
21636;SDS011;10980;49.596;6.142;2023-09-19T15:21:02;2.22;;;0.43;;
21636;SDS011;10980;49.596;6.142;2023-09-19T15:24:28;0.90;;;0.50;;
21636;SDS011;10980;49.596;6.142;2023-09-19T15:27:50;1.05;;;0.60;;
21636;SDS011;10980;49.596;6.142;2023-09-19T15:31:12;1.42;;;0.60;;
21636;SDS011;10980;49.596;6.142;2023-09-19T15:34:35;2.30;;;0.77;;
21636;SDS011;10980;49.596;6.142;2023-09-19T15:37:57;1.85;;;0.60;;
21636;SDS011;10980;49.596;6.142;2023-09-19T15:41:20;4.00;;;0.50;;
21636;SDS011;10980;49.596;6.142;2023-09-19T15:44:42;4.05;;;0.70;;
21636;SDS011;10980;49.596;6.142;2023-09-19T15:48:05;1.60;;;0.68;;
21636;SDS011;10980;49.596;6.142;2023-09-19T15:51:28;2.35;;;0.50;;
21636;SDS011;10980;49.596;6.142;2023-09-19T15:54:50;2.53;;;0.60;;
21636;SDS011;10980;49.596;6.142;2023-09-19T15:58:13;1.25;;;0.63;;
21636;SDS011;10980;49.596;6.142;2023-09-19T16:01:35;3.05;;;0.57;;
21636;SDS011;10980;49.596;6.142;2023-09-19T16:04:59;2.00;;;0.80;;
21636;SDS011;10980;49.596;6.142;2023-09-19T16:08:21;1.75;;;0.80;;
21636;SDS011;10980;49.596;6.142;2023-09-19T16:11:42;3.30;;;1.30;;
21636;SDS011;10980;49.596;6.142;2023-09-19T16:15:05;13.30;;;2.08;;
21636;SDS011;10980;49.596;6.142;2023-09-19T16:18:31;18.02;;;3.83;;
21636;SDS011;10980;49.596;6.142;2023-09-19T16:21:56;23.20;;;4.35;;
21636;SDS011;10980;49.596;6.142;2023-09-19T16:25:18;35.05;;;7.47;;
21636;SDS011;10980;49.596;6.142;2023-09-19T16:28:40;31.83;;;7.70;;
21636;SDS011;10980;49.596;6.142;2023-09-19T16:32:03;50.42;;;8.88;;
21636;SDS011;10980;49.596;6.142;2023-09-19T16:35:25;48.60;;;9.68;;
21636;SDS011;10980;49.596;6.142;2023-09-19T16:38:47;43.10;;;8.07;;
21636;SDS011;10980;49.596;6.142;2023-09-19T16:42:09;28.40;;;5.68;;
21636;SDS011;10980;49.596;6.142;2023-09-19T16:45:41;27.50;;;6.18;;
21636;SDS011;10980;49.596;6.142;2023-09-19T16:49:17;29.42;;;6.70;;
21636;SDS011;10980;49.596;6.142;2023-09-19T16:52:39;29.23;;;5.38;;
21636;SDS011;10980;49.596;6.142;2023-09-19T16:56:02;33.45;;;5.75;;
21636;SDS011;10980;49.596;6.142;2023-09-19T16:59:33;24.00;;;4.95;;
21636;SDS011;10980;49.596;6.142;2023-09-19T17:02:55;15.25;;;3.17;;
21636;SDS011;10980;49.596;6.142;2023-09-19T17:06:20;21.92;;;4.38;;
21636;SDS011;10980;49.596;6.142;2023-09-19T17:09:45;16.48;;;3.25;;
21636;SDS011;10980;49.596;6.142;2023-09-19T17:13:06;18.35;;;3.40;;
21636;SDS011;10980;49.596;6.142;2023-09-19T17:16:29;13.57;;;3.03;;
21636;SDS011;10980;49.596;6.142;2023-09-19T17:19:51;9.73;;;2.97;;
21636;SDS011;10980;49.596;6.142;2023-09-19T17:23:14;8.02;;;2.42;;
21636;SDS011;10980;49.596;6.142;2023-09-19T17:26:36;10.60;;;2.22;;
21636;SDS011;10980;49.596;6.142;2023-09-19T17:29:58;8.60;;;2.30;;
21636;SDS011;10980;49.596;6.142;2023-09-19T17:33:20;8.65;;;2.10;;
21636;SDS011;10980;49.596;6.142;2023-09-19T17:36:43;6.63;;;2.47;;
21636;SDS011;10980;49.596;6.142;2023-09-19T17:40:10;8.65;;;1.88;;
21636;SDS011;10980;49.596;6.142;2023-09-19T17:43:32;3.97;;;1.20;;
21636;SDS011;10980;49.596;6.142;2023-09-19T17:46:55;5.60;;;1.45;;
21636;SDS011;10980;49.596;6.142;2023-09-19T17:50:17;6.65;;;1.40;;
21636;SDS011;10980;49.596;6.142;2023-09-19T17:53:40;3.10;;;1.15;;
21636;SDS011;10980;49.596;6.142;2023-09-19T17:57:03;4.68;;;1.45;;
21636;SDS011;10980;49.596;6.142;2023-09-19T18:00:25;4.65;;;1.50;;
21636;SDS011;10980;49.596;6.142;2023-09-19T18:03:48;4.15;;;1.30;;
21636;SDS011;10980;49.596;6.142;2023-09-19T18:07:18;6.28;;;1.98;;
21636;SDS011;10980;49.596;6.142;2023-09-19T18:10:40;4.55;;;1.50;;
21636;SDS011;10980;49.596;6.142;2023-09-19T18:14:02;7.13;;;1.90;;
21636;SDS011;10980;49.596;6.142;2023-09-19T18:17:24;2.75;;;1.40;;
21636;SDS011;10980;49.596;6.142;2023-09-19T18:20:46;2.97;;;1.10;;
21636;SDS011;10980;49.596;6.142;2023-09-19T18:24:08;4.38;;;1.25;;
21636;SDS011;10980;49.596;6.142;2023-09-19T18:27:35;2.15;;;1.08;;
21636;SDS011;10980;49.596;6.142;2023-09-19T18:30:59;3.88;;;1.23;;
21636;SDS011;10980;49.596;6.142;2023-09-19T18:34:27;2.75;;;1.25;;
21636;SDS011;10980;49.596;6.142;2023-09-19T18:37:49;3.90;;;1.23;;
21636;SDS011;10980;49.596;6.142;2023-09-19T18:41:13;6.18;;;1.30;;
21636;SDS011;10980;49.596;6.142;2023-09-19T18:44:36;3.60;;;1.08;;
21636;SDS011;10980;49.596;6.142;2023-09-19T18:47:59;2.88;;;1.33;;
21636;SDS011;10980;49.596;6.142;2023-09-19T18:51:21;3.67;;;1.52;;
21636;SDS011;10980;49.596;6.142;2023-09-19T18:54:44;8.90;;;3.05;;
21636;SDS011;10980;49.596;6.142;2023-09-19T18:58:06;5.57;;;1.83;;
21636;SDS011;10980;49.596;6.142;2023-09-19T19:01:27;2.53;;;1.30;;
21636;SDS011;10980;49.596;6.142;2023-09-19T19:04:49;6.30;;;1.50;;
21636;SDS011;10980;49.596;6.142;2023-09-19T19:08:11;5.07;;;1.65;;
21636;SDS011;10980;49.596;6.142;2023-09-19T19:11:33;3.72;;;1.50;;
21636;SDS011;10980;49.596;6.142;2023-09-19T19:14:55;5.00;;;1.40;;
21636;SDS011;10980;49.596;6.142;2023-09-19T19:18:20;3.65;;;1.40;;
21636;SDS011;10980;49.596;6.142;2023-09-19T19:21:42;6.97;;;1.50;;
21636;SDS011;10980;49.596;6.142;2023-09-19T19:25:04;2.78;;;1.30;;
21636;SDS011;10980;49.596;6.142;2023-09-19T19:28:26;5.25;;;1.40;;
21636;SDS011;10980;49.596;6.142;2023-09-19T19:31:50;2.85;;;1.27;;
21636;SDS011;10980;49.596;6.142;2023-09-19T19:35:13;4.15;;;1.30;;
21636;SDS011;10980;49.596;6.142;2023-09-19T19:38:36;3.67;;;1.33;;
21636;SDS011;10980;49.596;6.142;2023-09-19T19:41:59;5.38;;;2.13;;
21636;SDS011;10980;49.596;6.142;2023-09-19T19:45:21;3.45;;;1.40;;
21636;SDS011;10980;49.596;6.142;2023-09-19T19:48:46;4.90;;;1.75;;
21636;SDS011;10980;49.596;6.142;2023-09-19T19:52:13;3.70;;;1.45;;
21636;SDS011;10980;49.596;6.142;2023-09-19T19:55:35;3.63;;;1.38;;
21636;SDS011;10980;49.596;6.142;2023-09-19T19:58:57;6.82;;;1.58;;
21636;SDS011;10980;49.596;6.142;2023-09-19T20:02:20;6.53;;;1.70;;
21636;SDS011;10980;49.596;6.142;2023-09-19T20:05:42;4.53;;;1.58;;
21636;SDS011;10980;49.596;6.142;2023-09-19T20:09:04;3.20;;;1.60;;
21636;SDS011;10980;49.596;6.142;2023-09-19T20:12:26;3.80;;;1.73;;
21636;SDS011;10980;49.596;6.142;2023-09-19T20:15:53;4.53;;;1.50;;
21636;SDS011;10980;49.596;6.142;2023-09-19T20:19:17;2.38;;;1.20;;
21636;SDS011;10980;49.596;6.142;2023-09-19T20:22:44;3.38;;;1.70;;
21636;SDS011;10980;49.596;6.142;2023-09-19T20:26:07;5.95;;;1.58;;
21636;SDS011;10980;49.596;6.142;2023-09-19T20:29:33;2.75;;;1.35;;
21636;SDS011;10980;49.596;6.142;2023-09-19T20:32:55;4.05;;;1.60;;
21636;SDS011;10980;49.596;6.142;2023-09-19T20:36:17;3.03;;;1.45;;
21636;SDS011;10980;49.596;6.142;2023-09-19T20:39:39;5.95;;;1.80;;
21636;SDS011;10980;49.596;6.142;2023-09-19T20:43:01;3.13;;;1.38;;
21636;SDS011;10980;49.596;6.142;2023-09-19T20:46:23;4.07;;;1.52;;
21636;SDS011;10980;49.596;6.142;2023-09-19T20:49:45;4.25;;;1.73;;
21636;SDS011;10980;49.596;6.142;2023-09-19T20:53:07;3.58;;;1.58;;
21636;SDS011;10980;49.596;6.142;2023-09-19T20:56:30;3.95;;;1.30;;
21636;SDS011;10980;49.596;6.142;2023-09-19T20:59:53;3.60;;;1.40;;
21636;SDS011;10980;49.596;6.142;2023-09-19T21:03:15;3.13;;;1.48;;
21636;SDS011;10980;49.596;6.142;2023-09-19T21:06:37;4.53;;;1.15;;